createdAt,value
2023-05-22T00:02:23.236Z,100512.65
2023-05-22T00:07:30.047Z,100506.30
2023-05-22T00:12:33.793Z,100501.46
2023-05-22T00:17:38.063Z,100506.48
2023-05-22T00:22:42.579Z,100506.27
2023-05-22T00:27:47.895Z,100504.64
2023-05-22T00:32:51.848Z,100499.91
2023-05-22T00:37:55.810Z,100499.99
2023-05-22T00:42:59.517Z,100494.02
2023-05-22T00:48:04.428Z,100491.73
2023-05-22T00:53:08.647Z,100490.14
2023-05-22T00:58:16.444Z,100487.33
2023-05-22T01:03:27.184Z,100487.84
2023-05-22T01:08:31.329Z,100490.35
2023-05-22T01:13:52.234Z,100498.14
2023-05-22T01:19:31.560Z,100499.52
2023-05-22T01:24:44.433Z,100500.21
2023-05-22T01:30:11.584Z,100500.76
2023-05-22T01:35:19.212Z,100503.15
2023-05-22T01:40:23.551Z,100497.61
2023-05-22T01:45:27.379Z,100508.27
2023-05-22T01:50:31.214Z,100501.42
2023-05-22T01:56:02.014Z,100497.65
2023-05-22T02:01:09.229Z,100498.40
2023-05-22T02:06:14.516Z,100495.91
2023-05-22T02:11:20.238Z,100497.71
2023-05-22T02:16:26.345Z,100495.54
2023-05-22T02:21:29.989Z,100498.13
2023-05-22T02:26:35.969Z,100493.84
2023-05-22T02:31:39.868Z,100490.27
2023-05-22T02:36:44.286Z,100489.10
2023-05-22T02:41:48.588Z,100485.80
2023-05-22T02:46:52.538Z,100485.13
2023-05-22T02:51:56.288Z,100483.73
2023-05-22T02:57:00.336Z,100482.89
2023-05-22T03:02:06.109Z,100487.05
2023-05-22T03:07:11.054Z,100483.53
2023-05-22T03:12:15.154Z,100478.88
2023-05-22T03:17:18.821Z,100481.08
2023-05-22T03:22:23.562Z,100479.92
2023-05-22T03:27:27.816Z,100480.36
2023-05-22T03:32:31.885Z,100475.23
2023-05-22T03:37:36.681Z,100478.46
2023-05-22T03:42:40.617Z,100481.81
2023-05-22T03:47:44.360Z,100479.86
2023-05-22T03:52:49.831Z,100478.21
2023-05-22T03:57:53.464Z,100481.07
2023-05-22T04:02:59.156Z,100475.77
2023-05-22T04:08:03.567Z,100466.05
2023-05-22T04:13:07.319Z,100465.69
2023-05-22T04:18:12.597Z,100467.45
2023-05-22T04:23:16.400Z,100467.23
2023-05-22T04:28:23.467Z,100461.59
2023-05-22T04:33:33.355Z,100459.16
2023-05-22T04:38:37.646Z,100459.02
2023-05-22T04:43:41.327Z,100456.85
2023-05-22T04:48:45.157Z,100461.61
2023-05-22T04:53:50.154Z,100463.38
2023-05-22T04:58:54.269Z,100465.48
2023-05-22T05:03:58.162Z,100464.30
2023-05-22T05:09:02.516Z,100468.55
2023-05-22T05:14:06.344Z,100473.46
2023-05-22T05:19:10.146Z,100477.67
2023-05-22T05:24:13.816Z,100474.48
2023-05-22T05:29:20.705Z,100473.02
2023-05-22T05:34:45.951Z,100476.44
2023-05-22T05:39:59.392Z,100475.60
2023-05-22T05:45:06.573Z,100477.79
2023-05-22T05:50:11.407Z,100468.77
2023-05-22T05:55:16.178Z,100464.85
2023-05-22T06:00:20.252Z,100471.23
2023-05-22T06:05:30.354Z,100473.74
2023-05-22T06:10:44.197Z,100471.33
2023-05-22T06:15:54.892Z,100466.39
2023-05-22T06:20:59.391Z,100463.91
2023-05-22T06:26:03.671Z,100466.20
2023-05-22T06:31:10.194Z,100467.31
2023-05-22T06:36:16.609Z,100468.36
2023-05-22T06:41:24.746Z,100464.97
2023-05-22T06:46:33.107Z,100464.10
2023-05-22T06:51:40.709Z,100464.17
2023-05-22T06:56:49.237Z,100472.90
2023-05-22T07:01:55.498Z,100473.40
2023-05-22T07:07:09.564Z,100469.30
2023-05-22T07:12:14.049Z,100470.05
2023-05-22T07:17:19.084Z,100473.59
2023-05-22T07:22:25.399Z,100467.48
2023-05-22T07:27:29.358Z,100468.59
2023-05-22T07:32:33.843Z,100463.05
2023-05-22T07:37:39.083Z,100465.91
2023-05-22T07:42:42.959Z,100465.02
2023-05-22T07:47:48.218Z,100461.10
2023-05-22T07:52:52.112Z,100457.54
2023-05-22T07:57:56.541Z,100455.55
2023-05-22T08:03:05.655Z,100454.75
2023-05-22T08:08:10.695Z,100448.77
2023-05-22T08:13:17.159Z,100448.00
2023-05-22T08:18:22.800Z,100442.73
2023-05-22T08:23:29.562Z,100436.91
2023-05-22T08:28:33.342Z,100441.89
2023-05-22T08:33:38.660Z,100443.06
2023-05-22T08:38:42.432Z,100445.02
2023-05-22T08:43:47.035Z,100447.90
2023-05-22T08:48:52.403Z,100439.95
2023-05-22T08:53:59.695Z,100434.73
2023-05-22T08:59:04.604Z,100430.69
2023-05-22T09:04:08.518Z,100426.59
2023-05-22T09:09:12.840Z,100425.17
2023-05-22T09:14:17.224Z,100419.50
2023-05-22T09:19:24.415Z,100413.71
2023-05-22T09:24:29.086Z,100402.07
2023-05-22T09:29:54.510Z,100404.79
2023-05-22T09:35:05.324Z,100405.64
2023-05-22T09:40:14.589Z,100403.73
2023-05-22T09:45:20.664Z,100395.04
2023-05-22T09:50:25.288Z,100390.29
2023-05-22T09:55:32.732Z,100388.98
2023-05-22T10:00:37.119Z,100376.49
2023-05-22T10:05:44.045Z,100375.56
2023-05-22T10:10:52.369Z,100367.85
2023-05-22T10:15:56.975Z,100371.02
2023-05-22T10:21:01.368Z,100369.86
2023-05-22T10:26:09.356Z,100375.19
2023-05-22T10:31:58.314Z,100365.59
2023-05-22T10:37:38.938Z,100366.50
2023-05-22T10:42:56.616Z,100358.45
2023-05-22T10:48:08.967Z,100354.61
2023-05-22T10:53:41.462Z,100357.98
2023-05-22T10:58:59.543Z,100356.88
2023-05-22T11:04:26.072Z,100351.42
2023-05-22T11:09:33.906Z,100347.95
2023-05-22T11:14:37.848Z,100346.98
2023-05-22T11:19:42.415Z,100342.20
2023-05-22T11:24:49.360Z,100339.16
2023-05-22T11:29:53.261Z,100339.20
2023-05-22T11:34:58.113Z,100336.14
2023-05-22T11:40:06.216Z,100332.52
2023-05-22T11:45:11.974Z,100325.53
2023-05-22T11:50:22.751Z,100324.67
2023-05-22T11:55:34.084Z,100324.61
2023-05-22T12:00:38.699Z,100320.80
2023-05-22T12:05:46.607Z,100317.23
2023-05-22T12:10:51.116Z,100316.46
2023-05-22T12:15:57.813Z,100311.08
2023-05-22T12:21:10.752Z,100301.89
2023-05-22T12:26:19.950Z,100302.30
2023-05-22T12:31:23.667Z,100292.55
2023-05-22T12:36:39.647Z,100290.96
2023-05-22T12:41:44.195Z,100292.03
2023-05-22T12:46:48.227Z,100286.52
2023-05-22T12:51:53.054Z,100289.52
2023-05-22T12:56:56.901Z,100284.13
2023-05-22T13:02:04.467Z,100281.83
2023-05-22T13:07:08.186Z,100279.14
2023-05-22T13:12:11.906Z,100272.45
2023-05-22T13:17:15.712Z,100274.02
2023-05-22T13:22:20.654Z,100267.54
2023-05-22T13:27:24.948Z,100261.71
2023-05-22T13:32:28.798Z,100256.14
2023-05-22T13:37:32.714Z,100253.23
2023-05-22T13:42:37.961Z,100247.23
2023-05-22T13:47:41.694Z,100241.67
2023-05-22T13:52:45.363Z,100235.47
2023-05-22T13:57:50.238Z,100236.85
2023-05-22T14:02:55.288Z,100232.80
2023-05-22T14:08:00.835Z,100229.83
2023-05-22T14:13:04.876Z,100228.25
2023-05-22T14:18:08.739Z,100220.17
2023-05-22T14:23:13.521Z,100217.27
2023-05-22T14:28:19.413Z,100213.64
2023-05-22T14:33:23.344Z,100204.75
2023-05-22T14:38:27.038Z,100207.48
2023-05-22T14:43:32.317Z,100206.01
2023-05-22T14:48:36.496Z,100198.79
2023-05-22T14:53:42.029Z,100201.19
2023-05-22T14:58:46.252Z,100197.15
2023-05-22T15:03:50.272Z,100192.15
2023-05-22T15:08:55.777Z,100193.15
2023-05-22T15:14:00.084Z,100185.82
2023-05-22T15:19:04.935Z,100180.93
2023-05-22T15:24:09.348Z,100175.70
2023-05-22T15:29:13.037Z,100166.61
2023-05-22T15:34:17.506Z,100161.26
2023-05-22T15:39:21.317Z,100155.38
2023-05-22T15:44:24.888Z,100151.97
2023-05-22T15:49:31.400Z,100148.45
2023-05-22T15:54:36.584Z,100143.64
2023-05-22T15:59:40.402Z,100136.52
2023-05-22T16:04:50.933Z,100132.13
2023-05-22T16:09:57.846Z,100127.13
2023-05-22T16:15:02.796Z,100124.23
2023-05-22T16:20:09.700Z,100115.69
2023-05-22T16:25:15.237Z,100114.90
2023-05-22T16:30:21.983Z,100117.92
2023-05-22T16:35:28.317Z,100117.72
2023-05-22T16:40:38.608Z,100121.90
2023-05-22T16:45:46.910Z,100120.45
2023-05-22T16:50:50.393Z,100126.47
2023-05-22T16:55:54.405Z,100130.10
2023-05-22T17:00:58.427Z,100130.52
2023-05-22T17:06:03.421Z,100128.69
2023-05-22T17:11:07.133Z,100127.71
2023-05-22T17:16:10.849Z,100128.61
2023-05-22T17:21:14.713Z,100129.62
2023-05-22T17:26:18.541Z,100132.27
2023-05-22T17:31:23.207Z,100133.58
2023-05-22T17:36:27.176Z,100127.08
2023-05-22T17:41:31.414Z,100126.64
2023-05-22T17:46:35.529Z,100121.19
2023-05-22T17:51:39.894Z,100121.27
2023-05-22T17:56:45.176Z,100126.31
2023-05-22T18:01:49.047Z,100128.18
2023-05-22T18:06:53.967Z,100126.98
2023-05-22T18:11:59.625Z,100125.70
2023-05-22T18:17:04.843Z,100119.67
2023-05-22T18:22:08.603Z,100119.82
2023-05-22T18:27:12.295Z,100113.81
2023-05-22T18:32:15.962Z,100111.83
2023-05-22T18:37:19.977Z,100116.90
2023-05-22T18:42:24.069Z,100115.55
2023-05-22T18:47:28.357Z,100119.47
2023-05-22T18:52:34.082Z,100124.04
2023-05-22T18:57:38.504Z,100128.10
2023-05-22T19:02:43.255Z,100125.79
2023-05-22T19:07:49.808Z,100125.52
2023-05-22T19:12:55.956Z,100125.98
2023-05-22T19:18:02.293Z,100129.40
2023-05-22T19:23:07.204Z,100124.31
2023-05-22T19:28:11.720Z,100124.55
2023-05-22T19:33:18.147Z,100129.77
2023-05-22T19:38:22.016Z,100130.45
2023-05-22T19:43:26.165Z,100131.95
2023-05-22T19:48:32.344Z,100139.85
2023-05-22T19:53:36.810Z,100145.49
2023-05-22T19:58:40.498Z,100145.15
2023-05-22T20:03:46.794Z,100144.96
2023-05-22T20:08:52.450Z,100141.71
2023-05-22T20:13:56.661Z,100138.80
2023-05-22T20:19:00.421Z,100130.88
2023-05-22T20:24:06.519Z,100127.33
2023-05-22T20:29:10.360Z,100126.91
2023-05-22T20:34:14.249Z,100127.90
2023-05-22T20:39:20.664Z,100127.02
2023-05-22T20:44:24.862Z,100127.32
2023-05-22T20:49:31.171Z,100123.48
2023-05-22T20:54:36.794Z,100122.52
2023-05-22T20:59:41.236Z,100124.98
2023-05-22T21:04:44.856Z,100129.23
2023-05-22T21:09:48.584Z,100130.37
2023-05-22T21:14:52.240Z,100131.06
2023-05-22T21:19:56.198Z,100133.14
2023-05-22T21:24:59.960Z,100133.80
2023-05-22T21:30:04.030Z,100134.61
2023-05-22T21:35:09.236Z,100128.65
2023-05-22T21:40:26.942Z,100128.14
2023-05-22T21:45:31.586Z,100129.52
2023-05-22T21:50:35.375Z,100129.81
2023-05-22T21:55:39.086Z,100128.92
2023-05-22T22:00:43.154Z,100121.98
2023-05-22T22:05:47.559Z,100118.76
2023-05-22T22:10:51.323Z,100118.77
2023-05-22T22:15:55.298Z,100123.03
2023-05-22T22:21:02.615Z,100120.27
2023-05-22T22:26:06.559Z,100116.12
2023-05-22T22:31:10.287Z,100114.71
2023-05-22T22:36:13.913Z,100114.37
2023-05-22T22:41:17.524Z,100106.08
2023-05-22T22:46:23.123Z,100097.48
2023-05-22T22:51:32.194Z,100095.13
2023-05-22T22:56:36.273Z,100094.60
2023-05-22T23:01:40.224Z,100096.86
2023-05-22T23:06:46.458Z,100098.54
2023-05-22T23:11:50.171Z,100097.48
2023-05-22T23:16:54.164Z,100090.41
2023-05-22T23:21:57.795Z,100086.98
2023-05-22T23:27:01.738Z,100086.63
2023-05-22T23:32:05.498Z,100080.64
2023-05-22T23:37:09.534Z,100076.09
2023-05-22T23:42:13.266Z,100075.83
2023-05-22T23:47:18.393Z,100073.23
2023-05-22T23:52:22.602Z,100076.05
2023-05-22T23:57:26.469Z,100071.70
